sensor_id;sensor_type;location;lat;lon;timestamp;P1;durP1;ratioP1;P2;durP2;ratioP2
4268;SDS011;2148;48.554;7.834;2023-02-28T00:00:45;3.80;;;3.50;;
4268;SDS011;2148;48.554;7.834;2023-02-28T00:03:10;4.10;;;3.70;;
4268;SDS011;2148;48.554;7.834;2023-02-28T00:05:35;4.97;;;3.80;;
4268;SDS011;2148;48.554;7.834;2023-02-28T00:08:01;6.37;;;3.93;;
4268;SDS011;2148;48.554;7.834;2023-02-28T00:10:28;5.57;;;3.67;;
4268;SDS011;2148;48.554;7.834;2023-02-28T00:12:55;5.20;;;3.90;;
4268;SDS011;2148;48.554;7.834;2023-02-28T00:15:22;4.07;;;3.67;;
4268;SDS011;2148;48.554;7.834;2023-02-28T00:17:48;3.90;;;3.60;;
4268;SDS011;2148;48.554;7.834;2023-02-28T00:20:13;3.63;;;3.33;;
4268;SDS011;2148;48.554;7.834;2023-02-28T00:22:39;4.30;;;3.87;;
4268;SDS011;2148;48.554;7.834;2023-02-28T00:25:05;4.07;;;3.60;;
4268;SDS011;2148;48.554;7.834;2023-02-28T00:27:32;3.93;;;3.47;;
4268;SDS011;2148;48.554;7.834;2023-02-28T00:29:57;4.70;;;4.00;;
4268;SDS011;2148;48.554;7.834;2023-02-28T00:32:22;4.43;;;4.03;;
4268;SDS011;2148;48.554;7.834;2023-02-28T00:34:48;3.60;;;3.30;;
4268;SDS011;2148;48.554;7.834;2023-02-28T00:37:13;4.13;;;3.80;;
4268;SDS011;2148;48.554;7.834;2023-02-28T00:39:39;4.70;;;4.30;;
4268;SDS011;2148;48.554;7.834;2023-02-28T00:42:05;3.30;;;3.10;;
4268;SDS011;2148;48.554;7.834;2023-02-28T00:44:31;4.50;;;4.20;;
4268;SDS011;2148;48.554;7.834;2023-02-28T00:46:56;3.77;;;3.47;;
4268;SDS011;2148;48.554;7.834;2023-02-28T00:49:22;4.60;;;4.20;;
4268;SDS011;2148;48.554;7.834;2023-02-28T00:51:48;3.60;;;3.30;;
4268;SDS011;2148;48.554;7.834;2023-02-28T00:54:14;3.97;;;3.67;;
4268;SDS011;2148;48.554;7.834;2023-02-28T00:56:39;4.27;;;3.77;;
4268;SDS011;2148;48.554;7.834;2023-02-28T00:59:04;5.17;;;3.70;;
4268;SDS011;2148;48.554;7.834;2023-02-28T01:01:30;4.20;;;3.90;;
4268;SDS011;2148;48.554;7.834;2023-02-28T01:03:55;4.63;;;4.20;;
4268;SDS011;2148;48.554;7.834;2023-02-28T01:06:20;4.27;;;3.87;;
4268;SDS011;2148;48.554;7.834;2023-02-28T01:08:45;4.80;;;4.30;;
4268;SDS011;2148;48.554;7.834;2023-02-28T01:11:11;4.30;;;3.97;;
4268;SDS011;2148;48.554;7.834;2023-02-28T01:13:38;4.33;;;3.93;;
4268;SDS011;2148;48.554;7.834;2023-02-28T01:16:03;4.30;;;3.90;;
4268;SDS011;2148;48.554;7.834;2023-02-28T01:18:29;5.27;;;4.77;;
4268;SDS011;2148;48.554;7.834;2023-02-28T01:20:55;4.13;;;3.83;;
4268;SDS011;2148;48.554;7.834;2023-02-28T01:23:21;4.07;;;3.47;;
4268;SDS011;2148;48.554;7.834;2023-02-28T01:25:48;4.60;;;4.23;;
4268;SDS011;2148;48.554;7.834;2023-02-28T01:28:13;3.93;;;3.63;;
4268;SDS011;2148;48.554;7.834;2023-02-28T01:30:39;4.07;;;3.73;;
4268;SDS011;2148;48.554;7.834;2023-02-28T01:33:04;4.33;;;3.93;;
4268;SDS011;2148;48.554;7.834;2023-02-28T01:35:32;4.87;;;4.00;;
4268;SDS011;2148;48.554;7.834;2023-02-28T01:38:02;5.17;;;4.10;;
4268;SDS011;2148;48.554;7.834;2023-02-28T01:40:27;4.60;;;4.20;;
4268;SDS011;2148;48.554;7.834;2023-02-28T01:42:53;5.87;;;4.30;;
4268;SDS011;2148;48.554;7.834;2023-02-28T01:45:20;5.33;;;4.47;;
4268;SDS011;2148;48.554;7.834;2023-02-28T01:47:48;4.90;;;4.40;;
4268;SDS011;2148;48.554;7.834;2023-02-28T01:50:19;4.50;;;4.10;;
4268;SDS011;2148;48.554;7.834;2023-02-28T01:52:47;4.53;;;4.10;;
4268;SDS011;2148;48.554;7.834;2023-02-28T01:55:13;5.90;;;4.90;;
4268;SDS011;2148;48.554;7.834;2023-02-28T01:57:45;4.30;;;3.90;;
4268;SDS011;2148;48.554;7.834;2023-02-28T02:00:14;4.53;;;4.13;;
4268;SDS011;2148;48.554;7.834;2023-02-28T02:02:45;4.93;;;4.33;;
4268;SDS011;2148;48.554;7.834;2023-02-28T02:05:14;5.23;;;3.90;;
4268;SDS011;2148;48.554;7.834;2023-02-28T02:08:03;4.73;;;4.33;;
4268;SDS011;2148;48.554;7.834;2023-02-28T02:10:34;5.30;;;4.80;;
4268;SDS011;2148;48.554;7.834;2023-02-28T02:16:07;5.00;;;4.60;;
4268;SDS011;2148;48.554;7.834;2023-02-28T02:24:44;4.27;;;3.97;;
4268;SDS011;2148;48.554;7.834;2023-02-28T02:27:41;4.90;;;4.40;;
4268;SDS011;2148;48.554;7.834;2023-02-28T02:30:21;5.13;;;4.63;;
4268;SDS011;2148;48.554;7.834;2023-02-28T02:32:57;5.27;;;4.67;;
4268;SDS011;2148;48.554;7.834;2023-02-28T02:35:38;5.23;;;4.67;;
4268;SDS011;2148;48.554;7.834;2023-02-28T02:41:04;5.00;;;4.50;;
4268;SDS011;2148;48.554;7.834;2023-02-28T02:43:38;4.13;;;3.83;;
4268;SDS011;2148;48.554;7.834;2023-02-28T02:46:10;5.27;;;4.80;;
4268;SDS011;2148;48.554;7.834;2023-02-28T02:48:38;5.10;;;4.67;;
4268;SDS011;2148;48.554;7.834;2023-02-28T02:51:13;5.33;;;4.90;;
4268;SDS011;2148;48.554;7.834;2023-02-28T02:54:02;5.83;;;4.60;;
4268;SDS011;2148;48.554;7.834;2023-02-28T02:56:43;6.03;;;4.40;;
4268;SDS011;2148;48.554;7.834;2023-02-28T02:59:11;5.13;;;4.73;;
4268;SDS011;2148;48.554;7.834;2023-02-28T03:01:38;5.87;;;4.73;;
4268;SDS011;2148;48.554;7.834;2023-02-28T03:04:10;4.70;;;4.17;;
4268;SDS011;2148;48.554;7.834;2023-02-28T03:06:38;4.97;;;4.47;;
4268;SDS011;2148;48.554;7.834;2023-02-28T03:09:03;4.07;;;3.77;;
4268;SDS011;2148;48.554;7.834;2023-02-28T03:11:29;4.60;;;4.20;;
4268;SDS011;2148;48.554;7.834;2023-02-28T03:16:46;5.10;;;4.60;;
4268;SDS011;2148;48.554;7.834;2023-02-28T03:25:17;5.47;;;4.87;;
4268;SDS011;2148;48.554;7.834;2023-02-28T03:33:47;5.73;;;5.13;;
4268;SDS011;2148;48.554;7.834;2023-02-28T03:36:38;4.87;;;4.47;;
4268;SDS011;2148;48.554;7.834;2023-02-28T03:39:11;5.13;;;4.30;;
4268;SDS011;2148;48.554;7.834;2023-02-28T03:41:42;5.73;;;5.03;;
4268;SDS011;2148;48.554;7.834;2023-02-28T03:44:13;6.00;;;5.37;;
4268;SDS011;2148;48.554;7.834;2023-02-28T03:46:43;5.17;;;4.77;;
4268;SDS011;2148;48.554;7.834;2023-02-28T03:49:17;4.80;;;4.40;;
4268;SDS011;2148;48.554;7.834;2023-02-28T03:51:44;5.73;;;5.23;;
4268;SDS011;2148;48.554;7.834;2023-02-28T03:54:25;5.60;;;4.27;;
4268;SDS011;2148;48.554;7.834;2023-02-28T03:56:56;4.93;;;4.53;;
4268;SDS011;2148;48.554;7.834;2023-02-28T03:59:28;5.40;;;4.77;;
4268;SDS011;2148;48.554;7.834;2023-02-28T04:01:57;5.17;;;4.73;;
4268;SDS011;2148;48.554;7.834;2023-02-28T04:04:23;5.30;;;4.80;;
4268;SDS011;2148;48.554;7.834;2023-02-28T04:06:49;5.63;;;5.17;;
4268;SDS011;2148;48.554;7.834;2023-02-28T04:09:16;4.10;;;3.77;;
4268;SDS011;2148;48.554;7.834;2023-02-28T04:11:51;6.33;;;5.73;;
4268;SDS011;2148;48.554;7.834;2023-02-28T04:14:17;5.70;;;5.20;;
4268;SDS011;2148;48.554;7.834;2023-02-28T04:16:43;5.63;;;5.13;;
4268;SDS011;2148;48.554;7.834;2023-02-28T04:19:09;4.57;;;4.17;;
4268;SDS011;2148;48.554;7.834;2023-02-28T04:21:37;5.93;;;5.33;;
4268;SDS011;2148;48.554;7.834;2023-02-28T04:24:10;5.77;;;5.27;;
4268;SDS011;2148;48.554;7.834;2023-02-28T04:26:39;6.13;;;5.53;;
4268;SDS011;2148;48.554;7.834;2023-02-28T04:29:05;5.70;;;4.73;;
4268;SDS011;2148;48.554;7.834;2023-02-28T04:31:32;6.70;;;6.03;;
4268;SDS011;2148;48.554;7.834;2023-02-28T04:33:57;6.67;;;6.07;;
4268;SDS011;2148;48.554;7.834;2023-02-28T04:36:22;6.13;;;5.30;;
4268;SDS011;2148;48.554;7.834;2023-02-28T04:38:48;6.27;;;5.63;;
4268;SDS011;2148;48.554;7.834;2023-02-28T04:41:13;5.83;;;4.53;;
4268;SDS011;2148;48.554;7.834;2023-02-28T04:43:39;6.93;;;6.00;;
4268;SDS011;2148;48.554;7.834;2023-02-28T04:46:04;4.87;;;4.47;;
4268;SDS011;2148;48.554;7.834;2023-02-28T04:48:31;5.50;;;5.00;;
4268;SDS011;2148;48.554;7.834;2023-02-28T04:51:03;6.53;;;5.07;;
4268;SDS011;2148;48.554;7.834;2023-02-28T04:53:30;5.20;;;4.80;;
4268;SDS011;2148;48.554;7.834;2023-02-28T04:55:56;6.63;;;5.70;;
4268;SDS011;2148;48.554;7.834;2023-02-28T04:58:21;6.23;;;5.63;;
4268;SDS011;2148;48.554;7.834;2023-02-28T05:00:50;6.60;;;5.87;;
4268;SDS011;2148;48.554;7.834;2023-02-28T05:03:16;7.03;;;5.97;;
4268;SDS011;2148;48.554;7.834;2023-02-28T05:05:41;5.77;;;5.27;;
4268;SDS011;2148;48.554;7.834;2023-02-28T05:08:07;6.30;;;5.80;;
4268;SDS011;2148;48.554;7.834;2023-02-28T05:10:32;6.40;;;5.03;;
4268;SDS011;2148;48.554;7.834;2023-02-28T05:12:57;6.10;;;5.50;;
4268;SDS011;2148;48.554;7.834;2023-02-28T05:15:23;6.10;;;5.50;;
4268;SDS011;2148;48.554;7.834;2023-02-28T05:17:48;6.27;;;5.23;;
4268;SDS011;2148;48.554;7.834;2023-02-28T05:20:13;6.40;;;5.80;;
4268;SDS011;2148;48.554;7.834;2023-02-28T05:22:39;6.10;;;5.57;;
4268;SDS011;2148;48.554;7.834;2023-02-28T05:25:05;6.87;;;6.00;;
4268;SDS011;2148;48.554;7.834;2023-02-28T05:27:31;6.70;;;6.00;;
4268;SDS011;2148;48.554;7.834;2023-02-28T05:29:57;6.57;;;5.90;;
4268;SDS011;2148;48.554;7.834;2023-02-28T05:32:22;5.70;;;5.20;;
4268;SDS011;2148;48.554;7.834;2023-02-28T05:34:47;6.30;;;5.73;;
4268;SDS011;2148;48.554;7.834;2023-02-28T05:37:13;6.63;;;6.03;;
4268;SDS011;2148;48.554;7.834;2023-02-28T05:39:39;6.10;;;5.60;;
4268;SDS011;2148;48.554;7.834;2023-02-28T05:42:05;7.93;;;6.53;;
4268;SDS011;2148;48.554;7.834;2023-02-28T05:44:31;6.00;;;5.40;;
4268;SDS011;2148;48.554;7.834;2023-02-28T05:46:56;6.27;;;5.70;;
4268;SDS011;2148;48.554;7.834;2023-02-28T05:49:21;6.43;;;5.27;;
4268;SDS011;2148;48.554;7.834;2023-02-28T05:51:47;6.53;;;5.93;;
4268;SDS011;2148;48.554;7.834;2023-02-28T05:54:12;6.60;;;5.63;;
4268;SDS011;2148;48.554;7.834;2023-02-28T05:56:38;5.53;;;4.97;;
4268;SDS011;2148;48.554;7.834;2023-02-28T05:59:04;7.90;;;7.10;;
4268;SDS011;2148;48.554;7.834;2023-02-28T06:01:34;7.47;;;6.77;;
4268;SDS011;2148;48.554;7.834;2023-02-28T06:04:04;6.83;;;5.93;;
4268;SDS011;2148;48.554;7.834;2023-02-28T06:06:31;7.73;;;7.03;;
4268;SDS011;2148;48.554;7.834;2023-02-28T06:08:58;7.70;;;7.00;;
4268;SDS011;2148;48.554;7.834;2023-02-28T06:11:24;7.27;;;6.53;;
4268;SDS011;2148;48.554;7.834;2023-02-28T06:13:58;7.97;;;6.43;;
4268;SDS011;2148;48.554;7.834;2023-02-28T06:16:25;6.57;;;5.87;;
4268;SDS011;2148;48.554;7.834;2023-02-28T06:18:51;6.20;;;5.70;;
4268;SDS011;2148;48.554;7.834;2023-02-28T06:21:17;7.23;;;6.53;;
4268;SDS011;2148;48.554;7.834;2023-02-28T06:23:43;6.53;;;5.93;;
4268;SDS011;2148;48.554;7.834;2023-02-28T06:26:08;7.17;;;6.50;;
4268;SDS011;2148;48.554;7.834;2023-02-28T06:28:34;8.33;;;7.50;;
4268;SDS011;2148;48.554;7.834;2023-02-28T06:30:59;6.40;;;5.77;;
4268;SDS011;2148;48.554;7.834;2023-02-28T06:33:24;8.03;;;7.23;;
4268;SDS011;2148;48.554;7.834;2023-02-28T06:35:50;8.23;;;6.60;;
4268;SDS011;2148;48.554;7.834;2023-02-28T06:38:16;6.63;;;6.03;;
4268;SDS011;2148;48.554;7.834;2023-02-28T06:40:41;7.33;;;6.60;;
4268;SDS011;2148;48.554;7.834;2023-02-28T06:43:06;7.50;;;6.70;;
4268;SDS011;2148;48.554;7.834;2023-02-28T06:45:32;7.27;;;6.57;;
4268;SDS011;2148;48.554;7.834;2023-02-28T06:47:57;6.87;;;6.20;;
4268;SDS011;2148;48.554;7.834;2023-02-28T06:50:23;7.17;;;5.13;;
4268;SDS011;2148;48.554;7.834;2023-02-28T06:52:48;8.00;;;7.20;;
4268;SDS011;2148;48.554;7.834;2023-02-28T06:55:18;6.50;;;5.80;;
4268;SDS011;2148;48.554;7.834;2023-02-28T06:57:44;8.20;;;7.40;;
4268;SDS011;2148;48.554;7.834;2023-02-28T07:00:09;8.03;;;7.23;;
4268;SDS011;2148;48.554;7.834;2023-02-28T07:02:35;9.53;;;7.97;;
4268;SDS011;2148;48.554;7.834;2023-02-28T07:05:01;8.07;;;7.37;;
4268;SDS011;2148;48.554;7.834;2023-02-28T07:07:26;8.13;;;6.87;;
4268;SDS011;2148;48.554;7.834;2023-02-28T07:09:52;6.37;;;5.83;;
4268;SDS011;2148;48.554;7.834;2023-02-28T07:12:17;7.73;;;6.83;;
4268;SDS011;2148;48.554;7.834;2023-02-28T07:14:42;8.73;;;7.83;;
4268;SDS011;2148;48.554;7.834;2023-02-28T07:17:08;8.07;;;7.27;;
4268;SDS011;2148;48.554;7.834;2023-02-28T07:19:35;9.03;;;7.60;;
4268;SDS011;2148;48.554;7.834;2023-02-28T07:22:01;7.37;;;6.50;;
4268;SDS011;2148;48.554;7.834;2023-02-28T07:24:27;8.23;;;7.50;;
4268;SDS011;2148;48.554;7.834;2023-02-28T07:26:54;8.40;;;7.57;;
4268;SDS011;2148;48.554;7.834;2023-02-28T07:29:19;8.43;;;7.27;;
4268;SDS011;2148;48.554;7.834;2023-02-28T07:31:44;7.77;;;6.27;;
4268;SDS011;2148;48.554;7.834;2023-02-28T07:34:11;10.83;;;7.53;;
4268;SDS011;2148;48.554;7.834;2023-02-28T07:36:37;6.90;;;6.20;;
4268;SDS011;2148;48.554;7.834;2023-02-28T07:39:02;11.30;;;7.93;;
4268;SDS011;2148;48.554;7.834;2023-02-28T07:41:27;8.07;;;7.30;;
4268;SDS011;2148;48.554;7.834;2023-02-28T07:43:54;8.87;;;8.00;;
4268;SDS011;2148;48.554;7.834;2023-02-28T07:46:22;5.93;;;5.33;;
4268;SDS011;2148;48.554;7.834;2023-02-28T07:48:47;6.30;;;5.23;;
4268;SDS011;2148;48.554;7.834;2023-02-28T07:51:12;9.07;;;8.20;;
4268;SDS011;2148;48.554;7.834;2023-02-28T07:53:38;9.20;;;7.80;;
4268;SDS011;2148;48.554;7.834;2023-02-28T07:56:03;8.57;;;7.07;;
4268;SDS011;2148;48.554;7.834;2023-02-28T07:58:29;7.70;;;7.00;;
4268;SDS011;2148;48.554;7.834;2023-02-28T08:00:55;9.30;;;7.80;;
4268;SDS011;2148;48.554;7.834;2023-02-28T08:03:21;7.57;;;6.80;;
4268;SDS011;2148;48.554;7.834;2023-02-28T08:05:47;7.73;;;6.13;;
4268;SDS011;2148;48.554;7.834;2023-02-28T08:08:13;9.50;;;7.70;;
4268;SDS011;2148;48.554;7.834;2023-02-28T08:10:39;7.03;;;6.27;;
4268;SDS011;2148;48.554;7.834;2023-02-28T08:13:05;9.20;;;8.30;;
4268;SDS011;2148;48.554;7.834;2023-02-28T08:15:30;7.87;;;7.13;;
4268;SDS011;2148;48.554;7.834;2023-02-28T08:17:55;10.07;;;6.90;;
4268;SDS011;2148;48.554;7.834;2023-02-28T08:20:21;9.97;;;8.13;;
4268;SDS011;2148;48.554;7.834;2023-02-28T08:22:47;9.43;;;7.87;;
4268;SDS011;2148;48.554;7.834;2023-02-28T08:25:13;8.90;;;8.00;;
4268;SDS011;2148;48.554;7.834;2023-02-28T08:27:38;8.63;;;7.83;;
4268;SDS011;2148;48.554;7.834;2023-02-28T08:30:03;7.03;;;6.43;;
4268;SDS011;2148;48.554;7.834;2023-02-28T08:32:29;8.27;;;7.47;;
4268;SDS011;2148;48.554;7.834;2023-02-28T08:34:54;7.80;;;7.03;;
4268;SDS011;2148;48.554;7.834;2023-02-28T08:37:19;10.03;;;7.33;;
4268;SDS011;2148;48.554;7.834;2023-02-28T08:39:45;10.13;;;8.60;;
4268;SDS011;2148;48.554;7.834;2023-02-28T08:42:10;9.23;;;7.30;;
4268;SDS011;2148;48.554;7.834;2023-02-28T08:44:35;8.07;;;7.37;;
4268;SDS011;2148;48.554;7.834;2023-02-28T08:47:01;6.07;;;5.47;;
4268;SDS011;2148;48.554;7.834;2023-02-28T08:49:26;7.83;;;7.00;;
4268;SDS011;2148;48.554;7.834;2023-02-28T08:51:51;7.07;;;6.07;;
4268;SDS011;2148;48.554;7.834;2023-02-28T08:54:16;9.43;;;8.43;;
4268;SDS011;2148;48.554;7.834;2023-02-28T08:56:44;7.33;;;6.57;;
4268;SDS011;2148;48.554;7.834;2023-02-28T08:59:11;9.13;;;7.17;;
4268;SDS011;2148;48.554;7.834;2023-02-28T09:01:36;9.27;;;7.20;;
4268;SDS011;2148;48.554;7.834;2023-02-28T09:04:01;8.20;;;7.40;;
4268;SDS011;2148;48.554;7.834;2023-02-28T09:06:27;7.40;;;6.70;;
4268;SDS011;2148;48.554;7.834;2023-02-28T09:08:52;8.13;;;7.30;;
4268;SDS011;2148;48.554;7.834;2023-02-28T09:11:18;8.60;;;7.07;;
4268;SDS011;2148;48.554;7.834;2023-02-28T09:13:44;7.47;;;6.67;;
4268;SDS011;2148;48.554;7.834;2023-02-28T09:16:11;11.07;;;7.63;;
4268;SDS011;2148;48.554;7.834;2023-02-28T09:18:37;8.50;;;6.90;;
4268;SDS011;2148;48.554;7.834;2023-02-28T09:21:07;7.77;;;6.87;;
4268;SDS011;2148;48.554;7.834;2023-02-28T09:23:34;7.13;;;6.30;;
4268;SDS011;2148;48.554;7.834;2023-02-28T09:26:02;9.40;;;8.40;;
4268;SDS011;2148;48.554;7.834;2023-02-28T09:28:28;6.73;;;6.07;;
4268;SDS011;2148;48.554;7.834;2023-02-28T09:30:53;8.97;;;7.60;;
4268;SDS011;2148;48.554;7.834;2023-02-28T09:33:19;9.63;;;8.57;;
4268;SDS011;2148;48.554;7.834;2023-02-28T09:35:46;8.47;;;7.57;;
4268;SDS011;2148;48.554;7.834;2023-02-28T09:38:12;10.17;;;7.50;;
4268;SDS011;2148;48.554;7.834;2023-02-28T09:40:39;8.13;;;7.30;;
4268;SDS011;2148;48.554;7.834;2023-02-28T09:43:19;9.17;;;8.27;;
4268;SDS011;2148;48.554;7.834;2023-02-28T09:46:02;9.40;;;7.60;;
4268;SDS011;2148;48.554;7.834;2023-02-28T09:48:37;7.53;;;6.60;;
4268;SDS011;2148;48.554;7.834;2023-02-28T09:51:09;8.53;;;7.43;;
4268;SDS011;2148;48.554;7.834;2023-02-28T09:53:41;10.23;;;7.40;;
4268;SDS011;2148;48.554;7.834;2023-02-28T09:56:08;8.73;;;7.93;;
4268;SDS011;2148;48.554;7.834;2023-02-28T09:58:37;10.53;;;9.40;;
4268;SDS011;2148;48.554;7.834;2023-02-28T10:01:09;9.93;;;8.03;;
4268;SDS011;2148;48.554;7.834;2023-02-28T10:06:07;8.60;;;7.67;;
4268;SDS011;2148;48.554;7.834;2023-02-28T10:11:07;10.00;;;9.00;;
4268;SDS011;2148;48.554;7.834;2023-02-28T10:16:22;6.13;;;5.53;;
4268;SDS011;2148;48.554;7.834;2023-02-28T10:18:52;11.23;;;8.53;;
4268;SDS011;2148;48.554;7.834;2023-02-28T10:21:30;8.67;;;7.77;;
4268;SDS011;2148;48.554;7.834;2023-02-28T10:24:02;9.77;;;8.77;;
4268;SDS011;2148;48.554;7.834;2023-02-28T10:26:29;8.80;;;7.90;;
4268;SDS011;2148;48.554;7.834;2023-02-28T10:28:56;10.67;;;7.50;;
4268;SDS011;2148;48.554;7.834;2023-02-28T10:31:22;10.63;;;8.47;;
4268;SDS011;2148;48.554;7.834;2023-02-28T10:33:47;13.43;;;9.57;;
4268;SDS011;2148;48.554;7.834;2023-02-28T10:36:17;11.90;;;9.97;;
4268;SDS011;2148;48.554;7.834;2023-02-28T10:38:44;10.17;;;9.17;;
4268;SDS011;2148;48.554;7.834;2023-02-28T10:41:12;9.70;;;8.80;;
4268;SDS011;2148;48.554;7.834;2023-02-28T10:43:39;14.83;;;9.73;;
4268;SDS011;2148;48.554;7.834;2023-02-28T10:48:36;10.20;;;9.13;;
4268;SDS011;2148;48.554;7.834;2023-02-28T10:51:04;8.27;;;6.60;;
4268;SDS011;2148;48.554;7.834;2023-02-28T10:53:32;10.83;;;9.77;;
4268;SDS011;2148;48.554;7.834;2023-02-28T10:56:12;12.73;;;9.73;;
4268;SDS011;2148;48.554;7.834;2023-02-28T11:04:18;10.77;;;9.47;;
4268;SDS011;2148;48.554;7.834;2023-02-28T11:07:18;9.87;;;8.73;;
4268;SDS011;2148;48.554;7.834;2023-02-28T11:09:46;9.97;;;8.97;;
4268;SDS011;2148;48.554;7.834;2023-02-28T11:12:47;11.23;;;9.20;;
4268;SDS011;2148;48.554;7.834;2023-02-28T11:15:24;10.80;;;9.80;;
4268;SDS011;2148;48.554;7.834;2023-02-28T11:17:57;10.87;;;9.37;;
4268;SDS011;2148;48.554;7.834;2023-02-28T11:20:25;11.47;;;10.03;;
4268;SDS011;2148;48.554;7.834;2023-02-28T11:22:53;9.63;;;8.60;;
4268;SDS011;2148;48.554;7.834;2023-02-28T11:25:26;11.07;;;9.97;;
4268;SDS011;2148;48.554;7.834;2023-02-28T11:27:55;13.57;;;11.10;;
4268;SDS011;2148;48.554;7.834;2023-02-28T11:32:56;11.20;;;10.03;;
4268;SDS011;2148;48.554;7.834;2023-02-28T11:35:25;12.67;;;9.43;;
4268;SDS011;2148;48.554;7.834;2023-02-28T11:37:52;10.87;;;9.13;;
4268;SDS011;2148;48.554;7.834;2023-02-28T11:40:18;11.10;;;8.83;;
4268;SDS011;2148;48.554;7.834;2023-02-28T11:43:11;9.77;;;8.03;;
4268;SDS011;2148;48.554;7.834;2023-02-28T11:45:54;11.47;;;10.27;;
4268;SDS011;2148;48.554;7.834;2023-02-28T11:48:32;10.83;;;9.37;;
4268;SDS011;2148;48.554;7.834;2023-02-28T11:51:07;9.63;;;8.73;;
4268;SDS011;2148;48.554;7.834;2023-02-28T11:59:19;11.50;;;10.07;;
4268;SDS011;2148;48.554;7.834;2023-02-28T12:04:48;10.20;;;9.10;;
4268;SDS011;2148;48.554;7.834;2023-02-28T12:10:21;11.20;;;10.00;;
4268;SDS011;2148;48.554;7.834;2023-02-28T12:21:37;11.37;;;10.17;;
4268;SDS011;2148;48.554;7.834;2023-02-28T12:24:07;12.50;;;11.20;;
4268;SDS011;2148;48.554;7.834;2023-02-28T12:26:43;10.83;;;9.73;;
4268;SDS011;2148;48.554;7.834;2023-02-28T12:31:42;12.50;;;10.33;;
4268;SDS011;2148;48.554;7.834;2023-02-28T12:34:31;11.50;;;10.30;;
4268;SDS011;2148;48.554;7.834;2023-02-28T12:36:58;12.07;;;10.47;;
4268;SDS011;2148;48.554;7.834;2023-02-28T12:39:32;10.60;;;9.53;;
4268;SDS011;2148;48.554;7.834;2023-02-28T12:42:05;12.07;;;10.87;;
4268;SDS011;2148;48.554;7.834;2023-02-28T12:44:35;11.47;;;10.27;;
4268;SDS011;2148;48.554;7.834;2023-02-28T12:47:05;15.03;;;11.60;;
4268;SDS011;2148;48.554;7.834;2023-02-28T12:49:41;12.20;;;9.67;;
4268;SDS011;2148;48.554;7.834;2023-02-28T12:52:11;11.63;;;10.07;;
4268;SDS011;2148;48.554;7.834;2023-02-28T12:57:42;10.47;;;9.47;;
4268;SDS011;2148;48.554;7.834;2023-02-28T13:00:12;10.97;;;9.47;;
4268;SDS011;2148;48.554;7.834;2023-02-28T13:08:59;10.73;;;9.63;;
4268;SDS011;2148;48.554;7.834;2023-02-28T13:11:38;13.13;;;9.60;;
4268;SDS011;2148;48.554;7.834;2023-02-28T13:14:28;11.93;;;10.73;;
4268;SDS011;2148;48.554;7.834;2023-02-28T13:16:59;12.47;;;11.23;;
4268;SDS011;2148;48.554;7.834;2023-02-28T13:19:28;9.90;;;8.83;;
4268;SDS011;2148;48.554;7.834;2023-02-28T13:21:55;12.40;;;11.30;;
4268;SDS011;2148;48.554;7.834;2023-02-28T13:24:36;12.50;;;9.90;;
4268;SDS011;2148;48.554;7.834;2023-02-28T13:29:41;10.57;;;9.47;;
4268;SDS011;2148;48.554;7.834;2023-02-28T13:34:35;11.47;;;10.27;;
4268;SDS011;2148;48.554;7.834;2023-02-28T13:39:48;12.80;;;11.33;;
4268;SDS011;2148;48.554;7.834;2023-02-28T13:42:32;13.43;;;10.53;;
4268;SDS011;2148;48.554;7.834;2023-02-28T13:47:30;12.57;;;11.27;;
4268;SDS011;2148;48.554;7.834;2023-02-28T13:50:41;11.93;;;10.73;;
4268;SDS011;2148;48.554;7.834;2023-02-28T13:58:54;12.50;;;9.97;;
4268;SDS011;2148;48.554;7.834;2023-02-28T14:01:36;12.60;;;10.50;;
4268;SDS011;2148;48.554;7.834;2023-02-28T14:07:16;10.73;;;9.63;;
4268;SDS011;2148;48.554;7.834;2023-02-28T14:09:55;10.40;;;9.40;;
4268;SDS011;2148;48.554;7.834;2023-02-28T14:18:15;12.10;;;10.13;;
4268;SDS011;2148;48.554;7.834;2023-02-28T14:20:41;11.57;;;10.37;;
4268;SDS011;2148;48.554;7.834;2023-02-28T14:25:52;11.30;;;10.10;;
4268;SDS011;2148;48.554;7.834;2023-02-28T14:31:15;10.80;;;9.50;;
4268;SDS011;2148;48.554;7.834;2023-02-28T14:41:21;10.50;;;9.40;;
4268;SDS011;2148;48.554;7.834;2023-02-28T14:43:52;11.00;;;8.97;;
4268;SDS011;2148;48.554;7.834;2023-02-28T14:46:19;10.13;;;9.13;;
4268;SDS011;2148;48.554;7.834;2023-02-28T14:48:46;9.73;;;8.50;;
4268;SDS011;2148;48.554;7.834;2023-02-28T14:51:13;11.13;;;9.23;;
4268;SDS011;2148;48.554;7.834;2023-02-28T14:53:43;10.93;;;9.80;;
4268;SDS011;2148;48.554;7.834;2023-02-28T14:56:17;11.73;;;10.50;;
4268;SDS011;2148;48.554;7.834;2023-02-28T14:58:50;10.13;;;8.87;;
4268;SDS011;2148;48.554;7.834;2023-02-28T15:01:18;13.03;;;11.83;;
4268;SDS011;2148;48.554;7.834;2023-02-28T15:03:44;13.03;;;11.57;;
4268;SDS011;2148;48.554;7.834;2023-02-28T15:06:13;11.60;;;10.37;;
4268;SDS011;2148;48.554;7.834;2023-02-28T15:08:41;12.00;;;10.80;;
4268;SDS011;2148;48.554;7.834;2023-02-28T15:11:14;11.63;;;10.53;;
4268;SDS011;2148;48.554;7.834;2023-02-28T15:13:50;12.13;;;10.73;;
4268;SDS011;2148;48.554;7.834;2023-02-28T15:21:56;12.47;;;10.63;;
4268;SDS011;2148;48.554;7.834;2023-02-28T15:27:03;12.00;;;10.80;;
4268;SDS011;2148;48.554;7.834;2023-02-28T15:29:31;10.60;;;9.60;;
4268;SDS011;2148;48.554;7.834;2023-02-28T15:32:07;8.97;;;7.77;;
4268;SDS011;2148;48.554;7.834;2023-02-28T15:34:36;12.57;;;10.60;;
4268;SDS011;2148;48.554;7.834;2023-02-28T15:37:24;11.67;;;10.47;;
4268;SDS011;2148;48.554;7.834;2023-02-28T15:39:56;12.90;;;11.20;;
4268;SDS011;2148;48.554;7.834;2023-02-28T15:42:23;10.67;;;9.57;;
4268;SDS011;2148;48.554;7.834;2023-02-28T15:44:52;13.57;;;11.13;;
4268;SDS011;2148;48.554;7.834;2023-02-28T15:49:51;11.27;;;10.10;;
4268;SDS011;2148;48.554;7.834;2023-02-28T15:52:33;15.53;;;12.77;;
4268;SDS011;2148;48.554;7.834;2023-02-28T15:57:53;17.80;;;14.13;;
4268;SDS011;2148;48.554;7.834;2023-02-28T16:00:22;20.50;;;14.33;;
4268;SDS011;2148;48.554;7.834;2023-02-28T16:02:49;16.83;;;11.83;;
4268;SDS011;2148;48.554;7.834;2023-02-28T16:05:28;16.67;;;12.27;;
4268;SDS011;2148;48.554;7.834;2023-02-28T16:07:58;13.83;;;10.40;;
4268;SDS011;2148;48.554;7.834;2023-02-28T16:10:26;12.13;;;10.30;;
4268;SDS011;2148;48.554;7.834;2023-02-28T16:12:53;13.33;;;11.33;;
4268;SDS011;2148;48.554;7.834;2023-02-28T16:15:21;14.00;;;12.00;;
4268;SDS011;2148;48.554;7.834;2023-02-28T16:17:51;13.00;;;9.97;;
4268;SDS011;2148;48.554;7.834;2023-02-28T16:20:22;12.97;;;10.23;;
4268;SDS011;2148;48.554;7.834;2023-02-28T16:22:49;13.63;;;12.20;;
4268;SDS011;2148;48.554;7.834;2023-02-28T16:25:15;14.63;;;11.40;;
4268;SDS011;2148;48.554;7.834;2023-02-28T16:27:43;13.53;;;11.23;;
4268;SDS011;2148;48.554;7.834;2023-02-28T16:30:15;12.93;;;11.37;;
4268;SDS011;2148;48.554;7.834;2023-02-28T16:32:43;13.33;;;12.03;;
4268;SDS011;2148;48.554;7.834;2023-02-28T16:35:09;13.63;;;12.33;;
4268;SDS011;2148;48.554;7.834;2023-02-28T16:37:35;12.67;;;11.20;;
4268;SDS011;2148;48.554;7.834;2023-02-28T16:40:00;15.77;;;12.17;;
4268;SDS011;2148;48.554;7.834;2023-02-28T16:42:26;14.40;;;12.90;;
4268;SDS011;2148;48.554;7.834;2023-02-28T16:44:53;13.07;;;10.87;;
4268;SDS011;2148;48.554;7.834;2023-02-28T16:47:19;13.60;;;10.43;;
4268;SDS011;2148;48.554;7.834;2023-02-28T16:49:45;13.37;;;11.67;;
4268;SDS011;2148;48.554;7.834;2023-02-28T16:52:12;12.43;;;10.77;;
4268;SDS011;2148;48.554;7.834;2023-02-28T16:54:38;13.70;;;12.30;;
4268;SDS011;2148;48.554;7.834;2023-02-28T16:57:04;13.37;;;11.30;;
4268;SDS011;2148;48.554;7.834;2023-02-28T16:59:30;15.30;;;11.60;;
4268;SDS011;2148;48.554;7.834;2023-02-28T17:01:57;16.30;;;12.10;;
4268;SDS011;2148;48.554;7.834;2023-02-28T17:04:23;13.30;;;11.90;;
4268;SDS011;2148;48.554;7.834;2023-02-28T17:06:49;12.67;;;11.37;;
4268;SDS011;2148;48.554;7.834;2023-02-28T17:09:18;13.70;;;12.10;;
4268;SDS011;2148;48.554;7.834;2023-02-28T17:11:45;12.50;;;11.20;;
4268;SDS011;2148;48.554;7.834;2023-02-28T17:14:11;14.00;;;12.57;;
4268;SDS011;2148;48.554;7.834;2023-02-28T17:16:37;14.43;;;12.70;;
4268;SDS011;2148;48.554;7.834;2023-02-28T17:19:09;13.67;;;12.27;;
4268;SDS011;2148;48.554;7.834;2023-02-28T17:21:36;16.77;;;12.27;;
4268;SDS011;2148;48.554;7.834;2023-02-28T17:24:02;14.57;;;12.97;;
4268;SDS011;2148;48.554;7.834;2023-02-28T17:26:27;14.37;;;11.77;;